Time;durP1;ratioP1;P1;durP2;ratioP2;P2;SDS_P1;SDS_P2;PMS_P1;PMS_P2;Temp;Humidity;BMP_temperature;BMP_pressure;BME280_temperature;BME280_humidity;BME280_pressure;Samples;Min_cycle;Max_cycle;Signal;HPM_P1;HPM_P2
2023/02/20 00:00:04;;;;;;;;;;;;;;;16.92;42.25;98811.53;4997825;28;19924;-74
2023/02/20 00:02:30;;;;;;;;;;;;;;;16.91;42.03;98807.25;4997721;28;19918;-73
2023/02/20 00:04:56;;;;;;;;;;;;;;;16.90;41.83;98818.78;5031886;28;19917;-74
2023/02/20 00:07:21;;;;;;;;;;;;;;;16.89;41.89;98799.50;4997502;28;20316;-74
2023/02/20 00:09:46;;;;;;;;;;;;;;;16.88;41.54;98810.22;4997875;28;20010;-74
2023/02/20 00:12:12;;;;;;;;;;;;;;;16.87;41.68;98809.38;5014200;28;20019;-75
2023/02/20 00:14:37;;;;;;;;;;;;;;;16.87;41.51;98808.53;5014166;28;19940;-73
2023/02/20 00:17:02;;;;;;;;;;;;;;;16.87;41.55;98803.28;5010387;28;19921;-73
2023/02/20 00:19:28;;;;;;;;;;;;;;;16.85;41.80;98799.94;5011976;28;19925;-73
2023/02/20 00:21:53;;;;;;;;;;;;;;;16.84;41.55;98801.75;4992659;28;19914;-73
2023/02/20 00:24:18;;;;;;;;;;;;;;;16.83;41.48;98806.19;5010648;28;19921;-75
2023/02/20 00:26:44;;;;;;;;;;;;;;;16.81;41.47;98813.44;5010612;28;19918;-73
2023/02/20 00:29:10;;;;;;;;;;;;;;;16.79;41.42;98810.13;5010853;28;20016;-72
2023/02/20 00:31:35;;;;;;;;;;;;;;;16.78;41.39;98807.66;5010414;28;20443;-73
2023/02/20 00:34:00;;;;;;;;;;;;;;;16.77;41.34;98811.25;5010756;28;19918;-73
2023/02/20 00:36:26;;;;;;;;;;;;;;;16.75;41.22;98800.88;5010394;28;20005;-72
2023/02/20 00:38:51;;;;;;;;;;;;;;;16.74;41.15;98812.38;5018229;28;19917;-72
2023/02/20 00:41:16;;;;;;;;;;;;;;;16.73;40.96;98808.13;4994051;28;19918;-73
2023/02/20 00:43:42;;;;;;;;;;;;;;;16.71;40.89;98810.06;5010627;28;19925;-73
2023/02/20 00:46:11;;;;;;;;;;;;;;;16.70;40.66;98810.22;5012191;28;19922;-73
2023/02/20 00:48:37;;;;;;;;;;;;;;;16.69;40.86;98805.94;4995419;28;19918;-73
2023/02/20 00:51:02;;;;;;;;;;;;;;;16.68;40.76;98802.47;4996379;28;19972;-73
2023/02/20 00:53:27;;;;;;;;;;;;;;;16.67;40.73;98800.81;4995590;28;19917;-73
2023/02/20 00:55:53;;;;;;;;;;;;;;;16.66;40.85;98809.69;5013272;28;19925;-73
2023/02/20 00:58:18;;;;;;;;;;;;;;;16.65;40.74;98800.13;5012258;28;19925;-72
2023/02/20 01:00:43;;;;;;;;;;;;;;;16.63;40.85;98800.31;4995594;28;19983;-72
2023/02/20 01:03:09;;;;;;;;;;;;;;;16.62;40.63;98793.38;5011663;28;20071;-72
2023/02/20 01:05:34;;;;;;;;;;;;;;;16.61;40.58;98802.25;5011874;28;20377;-72
2023/02/20 01:07:59;;;;;;;;;;;;;;;16.59;40.59;98800.78;5013293;28;19925;-72
2023/02/20 01:10:24;;;;;;;;;;;;;;;16.59;40.71;98808.69;5010896;28;19924;-72
2023/02/20 01:12:50;;;;;;;;;;;;;;;16.58;40.54;98812.28;5011763;28;19987;-72
2023/02/20 01:15:15;;;;;;;;;;;;;;;16.56;40.54;98816.88;4995298;28;19918;-72
2023/02/20 01:17:40;;;;;;;;;;;;;;;16.56;40.68;98816.88;4998151;28;19921;-72
2023/02/20 01:20:06;;;;;;;;;;;;;;;16.55;40.65;98825.75;5014830;28;19921;-75
2023/02/20 01:22:32;;;;;;;;;;;;;;;16.53;40.71;98825.09;5031117;28;20374;-73
2023/02/20 01:24:57;;;;;;;;;;;;;;;16.51;40.73;98833.16;5032709;28;19967;-73
2023/02/20 01:27:22;;;;;;;;;;;;;;;16.49;40.76;98829.81;5014944;28;19947;-73
2023/02/20 01:29:48;;;;;;;;;;;;;;;16.48;40.75;98833.47;5014897;28;19922;-73
2023/02/20 01:32:13;;;;;;;;;;;;;;;16.46;40.78;98830.13;5032317;28;19917;-72
2023/02/20 01:34:38;;;;;;;;;;;;;;;16.44;40.83;98832.91;5014998;28;20040;-72
2023/02/20 01:37:04;;;;;;;;;;;;;;;16.42;40.81;98828.78;5014620;28;20292;-73
2023/02/20 01:39:30;;;;;;;;;;;;;;;16.42;40.93;98832.25;5014446;28;19921;-74
2023/02/20 01:42:02;;;;;;;;;;;;;;;16.40;41.01;98834.22;5014950;28;19917;-74
2023/02/20 01:44:31;;;;;;;;;;;;;;;16.37;40.93;98828.44;5014765;28;19947;-74
2023/02/20 01:46:57;;;;;;;;;;;;;;;16.35;40.92;98823.31;5015232;28;19975;-74
2023/02/20 01:49:28;;;;;;;;;;;;;;;16.34;40.95;98824.28;5032718;28;19917;-74
2023/02/20 01:52:01;;;;;;;;;;;;;;;16.32;40.88;98825.41;5014664;28;19917;-74
2023/02/20 01:54:26;;;;;;;;;;;;;;;16.30;40.96;98828.19;5014627;28;19917;-74
2023/02/20 01:56:51;;;;;;;;;;;;;;;16.28;40.98;98822.25;4997696;28;19987;-74
2023/02/20 01:59:17;;;;;;;;;;;;;;;16.26;40.94;98818.94;4998119;28;20332;-74
2023/02/20 02:01:42;;;;;;;;;;;;;;;16.24;41.01;98834.91;4998103;28;19921;-74
2023/02/20 02:04:08;;;;;;;;;;;;;;;16.22;41.11;98842.09;5032448;28;19917;-74
2023/02/20 02:06:33;;;;;;;;;;;;;;;16.19;41.11;98836.31;5014624;28;19917;-74
2023/02/20 02:09:00;;;;;;;;;;;;;;;16.18;41.12;98853.13;5014843;28;19924;-74
2023/02/20 02:11:25;;;;;;;;;;;;;;;16.13;41.02;98850.94;4998051;28;20315;-74
2023/02/20 02:13:50;;;;;;;;;;;;;;;16.11;41.06;98852.88;4997916;28;19917;-75
2023/02/20 02:16:22;;;;;;;;;;;;;;;16.09;41.11;98849.56;5014015;28;19928;-74
2023/02/20 02:18:56;;;;;;;;;;;;;;;16.06;41.11;98847.22;5032336;28;20056;-74
2023/02/20 02:21:39;;;;;;;;;;;;;;;16.04;41.01;98851.81;5033637;28;19940;-73
2023/02/20 02:24:04;;;;;;;;;;;;;;;16.00;41.06;98867.09;5017833;28;19917;-73
2023/02/20 02:26:30;;;;;;;;;;;;;;;15.98;41.07;98871.66;5017660;28;19974;-73
2023/02/20 02:29:04;;;;;;;;;;;;;;;15.96;41.06;98864.91;5035709;28;19924;-72
2023/02/20 02:31:32;;;;;;;;;;;;;;;15.93;41.13;98875.75;5035689;28;19921;-72
2023/02/20 02:34:02;;;;;;;;;;;;;;;15.91;41.14;98871.44;5017866;28;19970;-72
2023/02/20 02:36:51;;;;;;;;;;;;;;;15.88;41.21;98884.91;5001342;28;20316;-73
2023/02/20 02:39:35;;;;;;;;;;;;;;;15.85;41.25;98872.03;4974814;28;20362;-74
2023/02/20 02:42:29;;;;;;;;;;;;;;;15.82;41.34;98874.94;4974269;28;20493;-74
2023/02/20 02:45:06;;;;;;;;;;;;;;;15.80;41.35;98868.19;4957339;28;19972;-73
2023/02/20 02:47:36;;;;;;;;;;;;;;;15.77;41.35;98866.69;4957943;28;19965;-73
2023/02/20 02:50:06;;;;;;;;;;;;;;;15.74;41.33;98862.50;4957746;28;19918;-74
2023/02/20 02:52:39;;;;;;;;;;;;;;;15.72;41.34;98859.19;4941368;28;19918;-74
2023/02/20 02:55:05;;;;;;;;;;;;;;;15.70;41.57;98873.47;4958981;28;20381;-74
2023/02/20 02:57:31;;;;;;;;;;;;;;;15.67;41.59;98869.34;4957924;28;20017;-74
2023/02/20 03:00:04;;;;;;;;;;;;;;;15.66;41.50;98878.19;4957825;28;19968;-74
2023/02/20 03:02:30;;;;;;;;;;;;;;;15.63;41.54;98875.84;4958102;28;20049;-74
2023/02/20 03:04:56;;;;;;;;;;;;;;;15.61;41.46;98883.06;4957970;28;19961;-75
2023/02/20 03:07:21;;;;;;;;;;;;;;;15.59;41.51;98887.63;4957826;28;20428;-73
2023/02/20 03:09:51;;;;;;;;;;;;;;;15.56;41.61;98887.94;4973915;28;19918;-73
2023/02/20 03:12:17;;;;;;;;;;;;;;;15.54;41.66;98888.09;4941548;28;19918;-73
2023/02/20 03:18:00;;;;;;;;;;;;;;;15.51;41.54;98892.78;5013603;28;19928;-73
2023/02/20 03:20:25;;;;;;;;;;;;;;;15.48;41.78;98900.97;4935278;29;19923;-73
2023/02/20 03:22:50;;;;;;;;;;;;;;;15.46;41.64;98898.47;4903189;29;19984;-73
2023/02/20 03:25:26;;;;;;;;;;;;;;;15.45;41.72;98903.88;4935353;29;19919;-74
2023/02/20 03:28:11;;;;;;;;;;;;;;;15.43;41.58;98911.09;4919361;29;19926;-74
2023/02/20 03:30:40;;;;;;;;;;;;;;;15.41;41.61;98906.00;4934220;29;19919;-74
2023/02/20 03:44:02;;;;;;;;;;;;;;;15.28;41.56;98893.16;4934898;29;19925;-74
2023/02/20 03:46:27;;;;;;;;;;;;;;;15.26;41.77;98895.13;4934648;29;19919;-74
2023/02/20 03:48:53;;;;;;;;;;;;;;;15.24;41.73;98902.28;4902900;29;20339;-73
2023/02/20 03:51:19;;;;;;;;;;;;;;;15.20;41.88;98909.66;4919148;29;20430;-74
2023/02/20 03:53:44;;;;;;;;;;;;;;;15.18;41.69;98911.59;4902680;29;19919;-74
2023/02/20 03:56:10;;;;;;;;;;;;;;;15.17;41.85;98917.00;4938001;28;19924;-73
2023/02/20 03:58:36;;;;;;;;;;;;;;;15.15;41.79;98916.31;4996385;28;19917;-73
2023/02/20 04:01:02;;;;;;;;;;;;;;;15.12;41.80;98908.72;4996405;28;20442;-74
2023/02/20 04:03:28;;;;;;;;;;;;;;;15.10;41.83;98908.84;4996363;28;19917;-74
2023/02/20 04:05:54;;;;;;;;;;;;;;;15.08;41.72;98916.03;5012758;28;19956;-74
2023/02/20 04:08:20;;;;;;;;;;;;;;;15.06;41.83;98914.53;4996164;28;20372;-75
2023/02/20 04:10:47;;;;;;;;;;;;;;;15.02;41.84;98920.06;4995605;28;19917;-75
2023/02/20 04:13:13;;;;;;;;;;;;;;;14.99;41.78;98911.63;4996616;28;19956;-74
2023/02/20 04:15:38;;;;;;;;;;;;;;;14.96;41.79;98927.69;5012608;28;20418;-73
2023/02/20 04:18:04;;;;;;;;;;;;;;;14.89;42.00;98929.22;5012407;28;19925;-75
2023/02/20 04:20:29;;;;;;;;;;;;;;;14.87;41.82;98926.72;5012088;28;20064;-74
2023/02/20 04:22:55;;;;;;;;;;;;;;;14.83;41.97;98925.34;5011482;28;19925;-73
2023/02/20 04:25:27;;;;;;;;;;;;;;;14.79;42.01;98929.22;4996220;28;20328;-72
2023/02/20 04:27:53;;;;;;;;;;;;;;;14.75;42.10;98927.84;5012423;28;19923;-74
2023/02/20 04:30:18;;;;;;;;;;;;;;;14.73;42.17;98927.16;5012524;28;19917;-77
2023/02/20 04:32:43;;;;;;;;;;;;;;;14.70;42.15;98938.75;4995857;28;20403;-74
2023/02/20 04:35:11;;;;;;;;;;;;;;;14.67;42.18;98944.28;5013433;28;19921;-73
2023/02/20 04:37:36;;;;;;;;;;;;;;;14.65;42.18;98948.88;5012186;28;20316;-75
2023/02/20 04:40:02;;;;;;;;;;;;;;;14.62;42.08;98954.41;5012024;28;19918;-73
2023/02/20 04:42:28;;;;;;;;;;;;;;;14.63;44.74;98969.19;5013324;28;19924;-76
2023/02/20 04:44:53;;;;;;;;;;;;;;;14.64;47.98;98969.06;5012104;28;19917;-72
2023/02/20 04:47:18;;;;;;;;;;;;;;;14.64;45.83;98958.56;5013748;28;19957;-74
2023/02/20 04:49:44;;;;;;;;;;;;;;;14.64;45.61;98962.97;5012074;28;20317;-74
2023/02/20 04:52:09;;;;;;;;;;;;;;;14.63;45.38;98962.13;4995458;28;19974;-76
2023/02/20 04:54:34;;;;;;;;;;;;;;;14.61;45.17;98958.84;5012007;28;19964;-73
2023/02/20 04:57:00;;;;;;;;;;;;;;;14.78;60.59;98966.97;5011777;28;20007;-76
2023/02/20 04:59:25;;;;;;;;;;;;;;;14.82;54.38;98973.63;4995865;28;20373;-72
2023/02/20 05:01:52;;;;;;;;;;;;;;;14.96;60.33;98975.84;5013121;28;19940;-74
2023/02/20 05:04:20;;;;;;;;;;;;;;;14.97;55.98;98976.66;5011105;28;19917;-74
2023/02/20 05:06:50;;;;;;;;;;;;;;;14.97;55.16;98974.84;5012900;28;19917;-73
2023/02/20 05:09:15;;;;;;;;;;;;;;;14.95;54.11;98970.72;5011514;28;19960;-74
2023/02/20 05:11:40;;;;;;;;;;;;;;;14.92;53.20;98982.34;4992759;28;20332;-74
2023/02/20 05:14:07;;;;;;;;;;;;;;;14.90;52.25;98986.91;5010226;28;19917;-74
2023/02/20 05:16:33;;;;;;;;;;;;;;;14.88;51.78;98994.09;5018104;28;19995;-75
2023/02/20 05:18:59;;;;;;;;;;;;;;;14.87;51.33;98992.44;5013504;28;20388;-75
2023/02/20 05:24:09;;;;;;;;;;;;;;;14.88;50.15;99016.91;5017031;28;19932;-78
2023/02/20 05:26:34;;;;;;;;;;;;;;;14.87;49.76;99000.31;5013895;28;19917;-77
2023/02/20 05:29:00;;;;;;;;;;;;;;;14.88;49.21;99015.13;5032456;28;20359;-77
2023/02/20 05:31:25;;;;;;;;;;;;;;;15.00;48.73;99021.06;5032136;28;20446;-77
2023/02/20 05:33:50;;;;;;;;;;;;;;;15.54;47.38;99003.84;5013981;28;19917;-77
2023/02/20 05:36:15;;;;;;;;;;;;;;;16.27;45.87;99004.97;5014065;28;19975;-77
2023/02/20 05:38:46;;;;;;;;;;;;;;;16.84;44.48;99023.22;4997765;28;20347;-75
2023/02/20 05:41:12;;;;;;;;;;;;;;;17.44;42.82;99027.88;5032543;28;19924;-73
2023/02/20 05:43:37;;;;;;;;;;;;;;;17.96;41.59;99016.47;5032324;28;19917;-75
2023/02/20 05:46:03;;;;;;;;;;;;;;;18.51;40.31;99030.25;5032324;28;19917;-75
2023/02/20 05:48:28;;;;;;;;;;;;;;;19.06;39.22;99037.63;4997597;28;20360;-76
2023/02/20 05:50:53;;;;;;;;;;;;;;;19.61;38.12;99036.13;5031965;28;19989;-78
2023/02/20 05:53:19;;;;;;;;;;;;;;;20.15;37.15;99026.75;5031105;28;19921;-76
2023/02/20 05:55:44;;;;;;;;;;;;;;;20.71;36.04;99032.78;4987286;28;19928;-77
2023/02/20 05:58:09;;;;;;;;;;;;;;;21.31;34.90;99039.16;5018474;28;19975;-74
2023/02/20 06:00:35;;;;;;;;;;;;;;;21.86;38.94;99046.97;5018322;28;20342;-77
2023/02/20 06:03:04;;;;;;;;;;;;;;;22.06;30.67;99052.59;5019214;28;19952;-78
2023/02/20 06:05:29;;;;;;;;;;;;;;;22.34;30.04;99063.38;5036909;28;20016;-73
2023/02/20 06:07:55;;;;;;;;;;;;;;;22.57;28.99;99067.78;5035851;28;20012;-75
2023/02/20 06:10:21;;;;;;;;;;;;;;;22.77;23.42;99076.81;5025310;28;20000;-75
2023/02/20 06:12:58;;;;;;;;;;;;;;;22.67;22.24;99070.94;5004507;28;20025;-78
2023/02/20 06:15:25;;;;;;;;;;;;;;;22.98;24.94;99074.34;5017134;28;19967;-79
2023/02/20 06:17:50;;;;;;;;;;;;;;;23.32;24.97;99070.19;4995554;28;19928;-78
2023/02/20 06:20:16;;;;;;;;;;;;;;;23.75;24.82;99065.63;4995733;28;19918;-76
2023/02/20 06:22:41;;;;;;;;;;;;;;;24.32;25.72;99055.72;4979242;28;19924;-78
2023/02/20 06:25:06;;;;;;;;;;;;;;;25.02;31.75;99062.75;4996196;28;20345;-73
2023/02/20 06:27:32;;;;;;;;;;;;;;;25.64;38.47;99066.09;4994662;28;20385;-74
2023/02/20 06:29:57;;;;;;;;;;;;;;;26.26;44.32;99057.75;4978477;28;19925;-74
2023/02/20 06:32:22;;;;;;;;;;;;;;;26.85;49.56;99064.72;4994860;28;19929;-72
2023/02/20 06:34:48;;;;;;;;;;;;;;;27.41;51.73;99063.13;4994976;28;20305;-75
2023/02/20 06:37:14;;;;;;;;;;;;;;;27.89;47.88;99056.28;4994450;28;19918;-72
2023/02/20 06:39:41;;;;;;;;;;;;;;;28.28;44.37;99050.75;4977815;28;19930;-75
2023/02/20 06:42:07;;;;;;;;;;;;;;;28.74;41.09;99045.84;4996095;28;19928;-76
2023/02/20 06:44:32;;;;;;;;;;;;;;;28.98;37.36;99050.22;4993981;28;19918;-75
2023/02/20 06:46:58;;;;;;;;;;;;;;;29.39;34.95;99048.56;4978282;28;19918;-77
2023/02/20 06:49:23;;;;;;;;;;;;;;;29.81;33.20;99063.00;4978488;28;19968;-73
2023/02/20 06:51:51;;;;;;;;;;;;;;;30.17;30.76;99069.16;4994600;28;20399;-74
2023/02/20 06:54:16;;;;;;;;;;;;;;;30.60;28.42;99074.09;4978427;28;19918;-73
2023/02/20 06:56:41;;;;;;;;;;;;;;;31.03;25.88;99074.66;4997410;28;19917;-74
2023/02/20 06:59:08;;;;;;;;;;;;;;;31.50;24.21;99077.03;4994538;28;19925;-74
2023/02/20 07:01:40;;;;;;;;;;;;;;;32.10;23.37;99075.53;4994477;28;19925;-73
2023/02/20 07:04:05;;;;;;;;;;;;;;;32.95;22.37;99090.56;4994356;28;19949;-74
2023/02/20 07:06:31;;;;;;;;;;;;;;;33.68;21.42;99085.50;4977774;28;19968;-74
2023/02/20 07:08:56;;;;;;;;;;;;;;;34.61;19.76;99078.66;4994037;28;20352;-73
2023/02/20 07:11:21;;;;;;;;;;;;;;;35.56;18.75;99081.22;4994165;28;19917;-76
2023/02/20 07:13:47;;;;;;;;;;;;;;;36.46;17.21;99094.03;4977617;28;19918;-73
2023/02/20 07:16:13;;;;;;;;;;;;;;;37.22;17.08;99091.16;4993393;28;19928;-76
2023/02/20 07:18:38;;;;;;;;;;;;;;;37.85;16.96;99090.34;4994110;28;20009;-74
2023/02/20 07:21:04;;;;;;;;;;;;;;;38.24;15.77;99086.66;4977960;28;19930;-76
2023/02/20 07:23:30;;;;;;;;;;;;;;;38.16;17.10;99098.19;4993322;28;19922;-76
2023/02/20 07:25:55;;;;;;;;;;;;;;;37.77;17.11;99097.22;4977830;28;19924;-73
2023/02/20 07:28:21;;;;;;;;;;;;;;;37.19;18.28;99076.19;4977599;28;19918;-75
2023/02/20 07:30:48;;;;;;;;;;;;;;;36.47;18.50;99103.00;4993924;28;19941;-70
2023/02/20 07:33:13;;;;;;;;;;;;;;;35.69;19.54;99110.53;4993257;28;19957;-73
2023/02/20 07:35:38;;;;;;;;;;;;;;;35.04;19.92;99111.03;4991839;28;19956;-74
2023/02/20 07:38:04;;;;;;;;;;;;;;;33.89;16.14;99124.38;4975556;28;19922;-77
2023/02/20 07:40:29;;;;;;;;;;;;;;;33.67;16.58;99108.22;4993615;28;19929;-79
2023/02/20 07:42:54;;;;;;;;;;;;;;;33.50;15.09;99116.47;4994632;28;20372;-78
2023/02/20 07:45:20;;;;;;;;;;;;;;;33.33;15.97;99119.31;4984200;28;19988;-76
2023/02/20 07:47:45;;;;;;;;;;;;;;;33.24;15.61;99101.94;4995439;28;19925;-77
2023/02/20 07:50:11;;;;;;;;;;;;;;;33.15;15.06;99106.97;4996160;28;19924;-76
2023/02/20 07:52:36;;;;;;;;;;;;;;;33.07;14.14;99110.16;4996584;28;19945;-86
2023/02/20 07:55:01;;;;;;;;;;;;;;;32.97;14.05;99091.94;4997673;28;19917;-82
2023/02/20 07:57:27;;;;;;;;;;;;;;;32.97;13.07;99094.63;5009953;28;19924;-81
2023/02/20 07:59:52;;;;;;;;;;;;;;;32.94;12.88;99100.56;5012059;28;19921;-83
2023/02/20 08:02:18;;;;;;;;;;;;;;;33.01;12.91;99111.16;5011379;28;20885;-83
2023/02/20 08:04:43;;;;;;;;;;;;;;;33.08;12.52;99111.75;5011574;28;19917;-85
2023/02/20 08:07:08;;;;;;;;;;;;;;;33.15;12.31;99133.22;5012874;28;19922;-85
2023/02/20 08:09:34;;;;;;;;;;;;;;;33.21;11.72;99126.81;5012135;28;19917;-85
2023/02/20 08:11:59;;;;;;;;;;;;;;;33.27;11.55;99117.66;5013167;28;19964;-82
2023/02/20 08:14:24;;;;;;;;;;;;;;;33.23;10.73;99113.84;5011869;28;19925;-83
2023/02/20 08:16:49;;;;;;;;;;;;;;;33.26;10.90;99132.25;5013001;28;20027;-84
2023/02/20 08:19:15;;;;;;;;;;;;;;;33.27;10.61;99133.91;4993612;28;19929;-85
2023/02/20 08:21:40;;;;;;;;;;;;;;;33.31;10.97;99136.91;4994904;28;19957;-82
2023/02/20 08:24:06;;;;;;;;;;;;;;;33.39;10.94;99125.59;4995362;28;20024;-84
2023/02/20 08:26:33;;;;;;;;;;;;;;;33.45;10.91;99131.88;5011796;28;19917;-86
2023/02/20 08:28:58;;;;;;;;;;;;;;;33.54;11.27;99136.56;5012647;28;19917;-84
2023/02/20 08:31:25;;;;;;;;;;;;;;;33.66;11.09;99128.25;5012772;28;19917;-87
2023/02/20 08:33:50;;;;;;;;;;;;;;;33.72;10.96;99132.66;5012873;28;19924;-87
2023/02/20 08:36:17;;;;;;;;;;;;;;;33.85;10.97;99144.91;4996349;28;19960;-85
2023/02/20 08:38:43;;;;;;;;;;;;;;;33.96;10.60;99137.69;4995313;28;19929;-89
2023/02/20 08:41:09;;;;;;;;;;;;;;;33.98;10.88;99138.22;5012352;28;19991;-81
2023/02/20 08:43:34;;;;;;;;;;;;;;;34.12;10.52;99140.50;5013404;28;19918;-84
2023/02/20 08:46:00;;;;;;;;;;;;;;;34.21;10.42;99133.50;4994424;28;19918;-82
2023/02/20 08:48:25;;;;;;;;;;;;;;;34.32;10.50;99134.41;5012338;28;19925;-85
2023/02/20 08:50:50;;;;;;;;;;;;;;;34.40;9.89;99123.06;5012240;28;20420;-87
2023/02/20 08:53:16;;;;;;;;;;;;;;;34.50;9.98;99124.97;4996685;28;19928;-84
2023/02/20 08:55:41;;;;;;;;;;;;;;;34.58;9.92;99127.97;5011868;28;19917;-83
2023/02/20 08:58:07;;;;;;;;;;;;;;;34.63;9.78;99118.25;5013022;28;20392;-85
2023/02/20 09:00:32;;;;;;;;;;;;;;;34.68;9.56;99113.66;4998114;28;20016;-88
2023/02/20 09:02:58;;;;;;;;;;;;;;;34.76;9.30;99110.47;4998533;28;19918;-88
2023/02/20 09:05:24;;;;;;;;;;;;;;;34.76;9.15;99105.03;4996391;28;19917;-86
2023/02/20 09:07:49;;;;;;;;;;;;;;;34.75;9.00;99102.59;5011319;28;19918;-88
2023/02/20 09:10:16;;;;;;;;;;;;;;;34.75;9.09;99086.31;4994574;28;19940;-82
2023/02/20 09:12:42;;;;;;;;;;;;;;;34.69;9.34;99109.84;4993724;28;19923;-80
2023/02/20 09:15:08;;;;;;;;;;;;;;;34.69;8.94;99111.75;4994066;28;20012;-82
2023/02/20 09:17:33;;;;;;;;;;;;;;;34.76;8.96;99120.47;5010347;28;20367;-81
2023/02/20 09:19:58;;;;;;;;;;;;;;;34.59;9.12;99118.78;5011510;28;19971;-82
2023/02/20 09:22:24;;;;;;;;;;;;;;;34.68;9.29;99138.06;4993820;28;19917;-82
2023/02/20 09:24:50;;;;;;;;;;;;;;;34.61;9.46;99127.44;4993602;28;19921;-84
2023/02/20 09:27:15;;;;;;;;;;;;;;;34.51;15.26;99138.28;5010638;28;19958;-87
2023/02/20 09:29:42;;;;;;;;;;;;;;;34.06;16.42;99158.59;4994188;28;19925;-87
2023/02/20 09:32:07;;;;;;;;;;;;;;;33.64;16.46;99157.47;4994544;28;19922;-84
2023/02/20 09:34:32;;;;;;;;;;;;;;;33.36;16.06;99164.00;4997980;28;19924;-84
2023/02/20 09:36:58;;;;;;;;;;;;;;;32.82;16.48;99170.16;4996988;28;19925;-83
2023/02/20 09:39:23;;;;;;;;;;;;;;;32.24;16.46;99169.66;5015673;28;19952;-84
2023/02/20 09:42:07;;;;;;;;;;;;;;;31.81;17.36;99158.47;4997764;28;19925;-84
2023/02/20 09:44:51;;;;;;;;;;;;;;;31.66;17.94;99177.97;5013938;28;19924;-79
2023/02/20 09:47:19;;;;;;;;;;;;;;;31.70;17.23;99183.69;5013816;28;20691;-78
2023/02/20 09:49:45;;;;;;;;;;;;;;;31.58;18.13;99180.22;5016517;28;19972;-86
2023/02/20 09:52:11;;;;;;;;;;;;;;;31.12;19.76;99181.03;5017593;28;20409;-76
2023/02/20 09:54:38;;;;;;;;;;;;;;;30.73;20.17;99180.78;4999128;28;20011;-81
2023/02/20 09:57:05;;;;;;;;;;;;;;;30.57;19.75;99186.88;5015145;28;20004;-78
2023/02/20 09:59:34;;;;;;;;;;;;;;;30.60;19.85;99194.50;5015253;28;19923;-78
2023/02/20 10:02:01;;;;;;;;;;;;;;;30.46;19.46;99199.34;5016377;28;19964;-78
2023/02/20 10:04:34;;;;;;;;;;;;;;;30.34;20.14;99203.88;5015041;28;19918;-76
2023/02/20 10:07:03;;;;;;;;;;;;;;;30.44;19.08;99199.56;4998653;28;20404;-75
2023/02/20 10:09:28;;;;;;;;;;;;;;;30.62;19.53;99193.22;4998178;28;19918;-78
2023/02/20 10:11:59;;;;;;;;;;;;;;;30.59;21.01;99179.41;5015220;28;19948;-78
2023/02/20 10:14:28;;;;;;;;;;;;;;;30.58;20.15;99194.72;5014761;28;20012;-78
2023/02/20 10:16:53;;;;;;;;;;;;;;;30.70;20.25;99183.94;5014626;28;20406;-80
2023/02/20 10:19:21;;;;;;;;;;;;;;;30.76;19.99;99174.06;5014544;28;20015;-77
2023/02/20 10:21:52;;;;;;;;;;;;;;;30.90;19.63;99175.47;5015974;28;19921;-78
2023/02/20 10:24:30;;;;;;;;;;;;;;;31.00;20.92;99180.25;5015737;28;20020;-77
2023/02/20 10:27:04;;;;;;;;;;;;;;;31.09;20.35;99184.22;5014432;28;20012;-77
2023/02/20 10:29:30;;;;;;;;;;;;;;;31.15;19.20;99191.34;4997894;28;19925;-77
2023/02/20 10:32:14;;;;;;;;;;;;;;;31.12;19.93;99186.44;5014834;28;19975;-82
2023/02/20 10:34:50;;;;;;;;;;;;;;;31.18;18.40;99182.75;5015005;28;19963;-80
2023/02/20 10:37:17;;;;;;;;;;;;;;;31.32;17.10;99174.38;4999089;28;20336;-81
2023/02/20 10:39:50;;;;;;;;;;;;;;;31.29;16.51;99167.56;4998570;28;19932;-81
2023/02/20 10:42:18;;;;;;;;;;;;;;;31.26;16.17;99180.72;4998203;28;19921;-81
2023/02/20 10:44:57;;;;;;;;;;;;;;;31.26;15.75;99168.06;4997767;28;19917;-81
2023/02/20 10:47:22;;;;;;;;;;;;;;;31.19;16.17;99175.50;5012685;28;19917;-78
2023/02/20 10:49:57;;;;;;;;;;;;;;;31.11;16.01;99154.31;5014253;28;20373;-76
2023/02/20 10:52:27;;;;;;;;;;;;;;;30.93;16.54;99157.97;5015648;28;19917;-73
2023/02/20 10:55:07;;;;;;;;;;;;;;;30.89;16.13;99157.66;4997682;28;20004;-74
2023/02/20 10:57:58;;;;;;;;;;;;;;;30.78;16.85;99166.59;4997683;28;19925;-72
2023/02/20 11:00:26;;;;;;;;;;;;;;;30.65;15.35;99146.94;5011477;28;19917;-78
2023/02/20 11:02:56;;;;;;;;;;;;;;;30.62;14.63;99142.03;5014278;28;19925;-75
2023/02/20 11:05:21;;;;;;;;;;;;;;;30.51;14.41;99150.97;4998198;28;19917;-73
2023/02/20 11:07:47;;;;;;;;;;;;;;;30.42;14.38;99153.19;5013674;28;20361;-73
2023/02/20 11:10:12;;;;;;;;;;;;;;;30.38;13.41;99161.94;4997590;28;19939;-72
2023/02/20 11:12:47;;;;;;;;;;;;;;;30.28;13.69;99162.53;5013707;28;20419;-73
2023/02/20 11:15:17;;;;;;;;;;;;;;;30.19;13.35;99161.25;4997416;28;19918;-72
2023/02/20 11:17:43;;;;;;;;;;;;;;;29.99;13.26;99159.75;4997247;28;19932;-73
2023/02/20 11:20:27;;;;;;;;;;;;;;;29.80;13.42;99152.84;5014691;28;19918;-75
2023/02/20 11:22:52;;;;;;;;;;;;;;;29.51;13.78;99150.78;5013345;28;19941;-74
2023/02/20 11:25:25;;;;;;;;;;;;;;;29.23;14.02;99159.47;5013206;28;19918;-75
2023/02/20 11:27:53;;;;;;;;;;;;;;;28.97;13.91;99168.69;5014639;28;20384;-74
2023/02/20 11:30:23;;;;;;;;;;;;;;;28.74;14.28;99167.53;5013236;28;19918;-75
2023/02/20 11:32:49;;;;;;;;;;;;;;;28.55;14.13;99176.63;4996991;28;19918;-77
2023/02/20 11:35:14;;;;;;;;;;;;;;;28.31;14.06;99181.81;5012972;28;19925;-76
2023/02/20 11:37:39;;;;;;;;;;;;;;;28.19;14.46;99184.41;5014585;28;19928;-75
2023/02/20 11:40:05;;;;;;;;;;;;;;;27.98;14.40;99183.75;5014685;28;20437;-75
2023/02/20 11:42:33;;;;;;;;;;;;;;;27.82;14.46;99192.34;5014203;28;19921;-71
2023/02/20 11:45:12;;;;;;;;;;;;;;;27.58;14.94;99188.59;5013202;28;19926;-71
2023/02/20 11:47:37;;;;;;;;;;;;;;;27.51;15.11;99177.09;5013223;28;19956;-71
2023/02/20 11:50:15;;;;;;;;;;;;;;;27.22;14.49;99174.75;5014227;28;19976;-78
2023/02/20 11:52:56;;;;;;;;;;;;;;;27.01;15.32;99183.09;5013141;28;20380;-73
2023/02/20 11:55:22;;;;;;;;;;;;;;;26.83;18.86;99167.75;5013176;28;19944;-83
2023/02/20 11:57:48;;;;;;;;;;;;;;;26.68;20.37;99178.72;4998071;28;19968;-77
2023/02/20 12:00:14;;;;;;;;;;;;;;;26.54;21.64;99173.38;4996096;28;19917;-78
2023/02/20 12:02:58;;;;;;;;;;;;;;;26.37;21.58;99164.16;5014249;28;20301;-77
2023/02/20 12:05:38;;;;;;;;;;;;;;;26.11;21.96;99179.22;5012953;28;20408;-78
2023/02/20 12:08:17;;;;;;;;;;;;;;;25.94;21.27;99175.28;4996683;28;19917;-79
2023/02/20 12:10:46;;;;;;;;;;;;;;;25.73;21.45;99161.09;5012997;28;20339;-77
2023/02/20 12:13:12;;;;;;;;;;;;;;;25.54;21.44;99165.41;5012851;28;19918;-77
2023/02/20 12:15:37;;;;;;;;;;;;;;;25.39;22.12;99173.59;4996532;28;19918;-76
2023/02/20 12:18:21;;;;;;;;;;;;;;;25.23;22.02;99171.28;4996043;28;19922;-75
2023/02/20 12:20:56;;;;;;;;;;;;;;;25.08;21.38;99160.72;5013957;28;19918;-74
2023/02/20 12:23:34;;;;;;;;;;;;;;;24.80;22.86;99179.56;4995636;28;19940;-77
2023/02/20 12:26:20;;;;;;;;;;;;;;;24.52;24.49;99167.88;5012431;28;19932;-74
2023/02/20 12:28:57;;;;;;;;;;;;;;;24.32;24.38;99165.09;5005107;28;20060;-76
2023/02/20 12:31:45;;;;;;;;;;;;;;;24.09;25.86;99169.88;5013974;28;19923;-77
2023/02/20 12:34:19;;;;;;;;;;;;;;;23.86;27.48;99178.09;4996568;28;20344;-76
2023/02/20 12:36:50;;;;;;;;;;;;;;;23.66;28.10;99179.53;5012750;28;19925;-81
2023/02/20 12:39:18;;;;;;;;;;;;;;;23.56;27.78;99189.72;5013883;28;19933;-74
2023/02/20 12:41:56;;;;;;;;;;;;;;;23.36;28.43;99180.69;5013797;28;19917;-83
2023/02/20 12:44:37;;;;;;;;;;;;;;;23.22;27.80;99182.38;5012413;28;20030;-75
2023/02/20 12:47:04;;;;;;;;;;;;;;;23.06;28.09;99184.22;5012003;28;19925;-74
2023/02/20 12:49:35;;;;;;;;;;;;;;;22.94;29.76;99177.72;4996173;28;19921;-73
2023/02/20 12:52:16;;;;;;;;;;;;;;;22.84;29.58;99175.34;5011956;28;19924;-75
2023/02/20 12:54:53;;;;;;;;;;;;;;;22.73;30.35;99170.50;5012997;28;19940;-75
2023/02/20 12:57:39;;;;;;;;;;;;;;;22.62;26.66;99179.78;4995695;28;19977;-77
2023/02/20 13:00:23;;;;;;;;;;;;;;;22.53;25.63;99167.56;5013221;28;19960;-74
2023/02/20 13:02:49;;;;;;;;;;;;;;;22.42;25.54;99179.50;5013270;28;19917;-73
2023/02/20 13:05:17;;;;;;;;;;;;;;;22.40;27.24;99176.19;4995331;28;20304;-75
2023/02/20 13:07:52;;;;;;;;;;;;;;;22.35;25.50;99170.59;5011958;28;20015;-77